Time;durP1;ratioP1;P1;durP2;ratioP2;P2;SDS_P1;SDS_P2;PMS_P1;PMS_P2;Temp;Humidity;BMP_temperature;BMP_pressure;BME280_temperature;BME280_humidity;BME280_pressure;Samples;Min_cycle;Max_cycle;Signal;HPM_P1;HPM_P2
2022/10/12 00:01:19;;;;;;;;;;;;;;;12.49;100.00;97122.06;5095922;28;19988;-74
2022/10/12 00:03:45;;;;;;;;;;;;;;;12.51;100.00;97114.78;5096110;28;20376;-74
2022/10/12 00:06:11;;;;;;;;;;;;;;;12.53;100.00;97117.19;5096051;28;20456;-74
2022/10/12 00:08:38;;;;;;;;;;;;;;;12.53;100.00;97122.47;5095853;28;20359;-74
2022/10/12 00:11:04;;;;;;;;;;;;;;;12.53;100.00;97118.00;5095909;28;20310;-74
2022/10/12 00:13:30;;;;;;;;;;;;;;;12.53;100.00;97120.63;5095602;28;19959;-74
2022/10/12 00:16:00;;;;;;;;;;;;;;;12.52;100.00;97123.50;5095335;28;19964;-74
2022/10/12 00:18:26;;;;;;;;;;;;;;;12.52;100.00;97118.22;5082307;28;19989;-74
2022/10/12 00:21:09;;;;;;;;;;;;;;;12.50;100.00;97122.91;5094498;28;20057;-74
2022/10/12 00:23:36;;;;;;;;;;;;;;;12.47;100.00;97116.22;5082461;28;19960;-74
2022/10/12 00:26:10;;;;;;;;;;;;;;;12.46;100.00;97119.09;5095356;28;20407;-74
2022/10/12 00:28:36;;;;;;;;;;;;;;;12.44;100.00;97113.22;5095575;28;19959;-74
2022/10/12 00:31:06;;;;;;;;;;;;;;;12.42;100.00;97107.38;5095228;28;19950;-74
2022/10/12 00:33:32;;;;;;;;;;;;;;;12.37;100.00;97111.44;5095857;28;19944;-74
2022/10/12 00:35:58;;;;;;;;;;;;;;;12.35;100.00;97116.13;5094774;28;20482;-74
2022/10/12 00:38:24;;;;;;;;;;;;;;;12.31;100.00;97120.19;5095262;28;19961;-74
2022/10/12 00:40:50;;;;;;;;;;;;;;;12.29;100.00;97118.78;5095238;28;20385;-74
2022/10/12 00:43:27;;;;;;;;;;;;;;;12.25;100.00;97110.50;5095017;28;19997;-74
2022/10/12 00:45:53;;;;;;;;;;;;;;;12.21;100.00;97109.31;5094972;28;20436;-74
2022/10/12 00:48:19;;;;;;;;;;;;;;;12.17;100.00;97110.75;5095046;28;19962;-74
2022/10/12 00:50:45;;;;;;;;;;;;;;;12.12;100.00;97105.34;5094964;28;19969;-74
2022/10/12 00:53:16;;;;;;;;;;;;;;;12.09;100.00;97117.06;5094944;28;19951;-74
2022/10/12 00:55:51;;;;;;;;;;;;;;;12.04;100.00;97114.25;5094930;28;19953;-74
2022/10/12 00:58:17;;;;;;;;;;;;;;;11.97;100.00;97116.94;5093165;28;19950;-74
2022/10/12 01:00:44;;;;;;;;;;;;;;;11.94;100.00;97113.91;5094714;28;20426;-74
2022/10/12 01:03:14;;;;;;;;;;;;;;;11.88;100.00;97112.91;5093901;28;19959;-74
2022/10/12 01:05:39;;;;;;;;;;;;;;;11.83;100.00;97114.56;5094972;28;20321;-74
2022/10/12 01:08:05;;;;;;;;;;;;;;;11.80;100.00;97115.78;5094621;28;19990;-75
2022/10/12 01:10:31;;;;;;;;;;;;;;;11.76;100.00;97120.63;5095134;28;19984;-74
2022/10/12 01:12:58;;;;;;;;;;;;;;;11.76;100.00;97127.72;5094681;28;19950;-74
2022/10/12 01:15:28;;;;;;;;;;;;;;;11.72;100.00;97123.91;5095010;28;19954;-74
2022/10/12 01:17:57;;;;;;;;;;;;;;;11.71;100.00;97135.41;5094640;28;19989;-74
2022/10/12 01:20:29;;;;;;;;;;;;;;;11.70;100.00;97133.81;5094742;28;19965;-76
2022/10/12 01:23:27;;;;;;;;;;;;;;;11.70;100.00;97133.81;5094532;28;19953;-74
2022/10/12 01:25:55;;;;;;;;;;;;;;;11.69;100.00;97130.34;5060556;28;19961;-74
2022/10/12 01:28:24;;;;;;;;;;;;;;;11.68;100.00;97135.84;5094203;28;19952;-74
2022/10/12 01:30:55;;;;;;;;;;;;;;;11.67;100.00;97132.38;5094562;28;19954;-74
2022/10/12 01:33:21;;;;;;;;;;;;;;;11.69;100.00;97137.44;5094329;28;19954;-74
2022/10/12 01:35:49;;;;;;;;;;;;;;;11.68;100.00;97127.94;5094566;28;19949;-73
2022/10/12 01:38:34;;;;;;;;;;;;;;;11.69;100.00;97125.09;5094358;28;20328;-73
2022/10/12 01:41:06;;;;;;;;;;;;;;;11.70;100.00;97121.47;5094091;28;19967;-74
2022/10/12 01:43:33;;;;;;;;;;;;;;;11.71;100.00;97124.91;5093405;28;19958;-74
2022/10/12 01:46:22;;;;;;;;;;;;;;;11.72;100.00;97118.63;5094264;28;19960;-73
2022/10/12 01:48:50;;;;;;;;;;;;;;;11.74;100.00;97121.88;5083893;28;20329;-74
2022/10/12 01:51:21;;;;;;;;;;;;;;;11.76;100.00;97109.31;5094319;28;19963;-74
2022/10/12 01:53:53;;;;;;;;;;;;;;;11.78;100.00;97110.72;5094020;28;19962;-74
2022/10/12 01:56:26;;;;;;;;;;;;;;;11.80;100.00;97107.91;5094210;28;19960;-74
2022/10/12 01:58:52;;;;;;;;;;;;;;;11.82;100.00;97108.47;5094006;28;19965;-74
2022/10/12 02:01:22;;;;;;;;;;;;;;;11.83;100.00;97110.09;5094056;28;19971;-74
2022/10/12 02:04:07;;;;;;;;;;;;;;;11.86;100.00;97108.88;5093950;28;20346;-74
2022/10/12 02:06:53;;;;;;;;;;;;;;;11.87;100.00;97106.03;5093737;28;19966;-74
2022/10/12 02:09:29;;;;;;;;;;;;;;;11.89;100.00;97114.53;5093341;28;19966;-74
2022/10/12 02:11:57;;;;;;;;;;;;;;;11.91;100.00;97104.63;5080095;28;20305;-74
2022/10/12 02:14:30;;;;;;;;;;;;;;;11.93;100.00;97113.13;5093480;28;19954;-73
2022/10/12 02:16:58;;;;;;;;;;;;;;;11.94;100.00;97114.72;5093988;28;19951;-74
2022/10/12 02:19:44;;;;;;;;;;;;;;;11.95;100.00;97100.56;5092607;28;20455;-74
2022/10/12 02:22:10;;;;;;;;;;;;;;;11.95;100.00;97100.56;5093201;28;19983;-74
2022/10/12 02:24:38;;;;;;;;;;;;;;;11.97;100.00;97101.16;5093685;28;19959;-74
2022/10/12 02:27:05;;;;;;;;;;;;;;;11.98;100.00;97104.59;5092724;28;19961;-74
2022/10/12 02:29:36;;;;;;;;;;;;;;;11.97;100.00;97098.53;5093323;28;19960;-74
2022/10/12 02:32:11;;;;;;;;;;;;;;;11.98;100.00;97099.34;5093306;28;19958;-74
2022/10/12 02:34:46;;;;;;;;;;;;;;;11.98;100.00;97092.25;5092792;28;19955;-74
2022/10/12 02:37:18;;;;;;;;;;;;;;;12.00;100.00;97094.66;5093402;28;19955;-74
2022/10/12 02:39:48;;;;;;;;;;;;;;;11.98;100.00;97094.06;5093188;28;19959;-74
2022/10/12 02:42:18;;;;;;;;;;;;;;;11.98;100.00;97084.34;5093773;28;19968;-74
2022/10/12 02:44:45;;;;;;;;;;;;;;;11.99;100.00;97087.81;5093955;28;19958;-73
2022/10/12 02:47:11;;;;;;;;;;;;;;;12.00;100.00;97083.34;5093383;28;19955;-74
2022/10/12 02:49:38;;;;;;;;;;;;;;;11.98;100.00;97094.88;5074634;28;19960;-74
2022/10/12 02:52:05;;;;;;;;;;;;;;;11.98;100.00;97084.34;5093584;28;19960;-74
2022/10/12 02:54:31;;;;;;;;;;;;;;;12.00;100.00;97086.00;5093164;28;19963;-74
2022/10/12 02:56:57;;;;;;;;;;;;;;;12.00;100.00;97078.91;5093050;28;19959;-73
2022/10/12 02:59:23;;;;;;;;;;;;;;;12.02;100.00;97084.75;5092741;28;19989;-73
2022/10/12 03:01:49;;;;;;;;;;;;;;;12.03;100.00;97080.28;5093060;28;19973;-75
2022/10/12 03:04:15;;;;;;;;;;;;;;;12.04;100.00;97081.91;5093116;28;20045;-74
2022/10/12 03:06:44;;;;;;;;;;;;;;;12.05;100.00;97079.06;5093006;28;19959;-73
2022/10/12 03:09:10;;;;;;;;;;;;;;;12.06;100.00;97072.81;5092937;28;19969;-74
2022/10/12 03:11:43;;;;;;;;;;;;;;;12.05;100.00;97076.44;5092951;28;19968;-75
2022/10/12 03:14:13;;;;;;;;;;;;;;;12.07;100.00;97070.97;5093163;28;19946;-74
2022/10/12 03:16:40;;;;;;;;;;;;;;;12.07;100.00;97084.13;5092961;28;19956;-73
2022/10/12 03:19:06;;;;;;;;;;;;;;;12.07;100.00;97084.13;5093159;28;19986;-74
2022/10/12 03:21:32;;;;;;;;;;;;;;;12.07;100.00;97087.53;5093237;28;19979;-74
2022/10/12 03:23:58;;;;;;;;;;;;;;;12.07;100.00;97081.47;5093061;28;19953;-75
2022/10/12 03:26:23;;;;;;;;;;;;;;;12.08;100.00;97088.38;5095433;28;19956;-73
2022/10/12 03:28:49;;;;;;;;;;;;;;;12.09;100.00;97088.13;5096978;28;20291;-74
2022/10/12 03:31:15;;;;;;;;;;;;;;;12.09;100.00;97090.75;5096745;28;20010;-74
2022/10/12 03:33:41;;;;;;;;;;;;;;;12.08;100.00;97091.78;5096761;28;19983;-74
2022/10/12 03:36:08;;;;;;;;;;;;;;;12.09;100.00;97093.41;5096713;28;19957;-75
2022/10/12 03:38:34;;;;;;;;;;;;;;;12.11;100.00;97090.56;5096693;28;19949;-74
2022/10/12 03:41:00;;;;;;;;;;;;;;;12.11;100.00;97087.94;5096386;28;19974;-74
2022/10/12 03:43:26;;;;;;;;;;;;;;;12.11;100.00;97080.84;5096634;28;19958;-74
2022/10/12 03:45:53;;;;;;;;;;;;;;;12.12;100.00;97090.38;5096334;28;19956;-75
2022/10/12 03:48:18;;;;;;;;;;;;;;;12.13;100.00;97096.41;5096770;28;19954;-75
2022/10/12 03:50:51;;;;;;;;;;;;;;;12.12;100.00;97097.44;5096277;28;20478;-74
2022/10/12 03:53:18;;;;;;;;;;;;;;;12.10;100.00;97097.66;5096486;28;19950;-74
2022/10/12 03:55:45;;;;;;;;;;;;;;;12.11;100.00;97101.09;5095676;28;20324;-74
2022/10/12 03:58:11;;;;;;;;;;;;;;;12.11;100.00;97096.63;5096292;28;19957;-74
2022/10/12 04:00:37;;;;;;;;;;;;;;;12.13;100.00;97096.41;5095595;28;19959;-74
2022/10/12 04:03:03;;;;;;;;;;;;;;;12.13;100.00;97104.31;5096035;28;20312;-75
2022/10/12 04:05:29;;;;;;;;;;;;;;;12.12;100.00;97098.25;5084955;28;19956;-74
2022/10/12 04:07:55;;;;;;;;;;;;;;;12.11;100.00;97099.25;5096044;28;19969;-74
2022/10/12 04:10:21;;;;;;;;;;;;;;;12.11;100.00;97095.81;5095647;28;19982;-74
2022/10/12 04:12:47;;;;;;;;;;;;;;;12.11;100.00;97098.44;5096151;28;20467;-74
2022/10/12 04:15:13;;;;;;;;;;;;;;;12.11;100.00;97095.81;5094721;28;19951;-75
2022/10/12 04:17:39;;;;;;;;;;;;;;;12.13;100.00;97099.84;5095599;28;19990;-74
2022/10/12 04:20:05;;;;;;;;;;;;;;;12.13;100.00;97099.03;5095845;28;20398;-75
2022/10/12 04:22:31;;;;;;;;;;;;;;;12.14;100.00;97103.31;5095841;28;19976;-74
2022/10/12 04:24:57;;;;;;;;;;;;;;;12.16;100.00;97096.81;5095775;28;19956;-74
2022/10/12 04:27:23;;;;;;;;;;;;;;;12.16;100.00;97096.81;5095605;28;20043;-75
2022/10/12 04:29:49;;;;;;;;;;;;;;;12.18;100.00;97104.50;5095624;28;19971;-74
2022/10/12 04:32:15;;;;;;;;;;;;;;;12.17;100.00;97097.59;5095221;28;20000;-74
2022/10/12 04:34:41;;;;;;;;;;;;;;;12.18;100.00;97104.50;5095236;28;19956;-74
2022/10/12 04:37:07;;;;;;;;;;;;;;;12.16;100.00;97102.06;5095375;28;20006;-74
2022/10/12 04:39:33;;;;;;;;;;;;;;;12.17;100.00;97097.59;5095423;28;20003;-74
2022/10/12 04:41:59;;;;;;;;;;;;;;;12.17;100.00;97102.88;5095103;28;19989;-75
2022/10/12 04:44:25;;;;;;;;;;;;;;;12.17;100.00;97101.03;5095087;28;19957;-74
2022/10/12 04:46:50;;;;;;;;;;;;;;;12.17;100.00;97110.75;5095226;28;19959;-74
2022/10/12 04:49:16;;;;;;;;;;;;;;;12.13;100.00;97104.31;5095403;28;20393;-74
2022/10/12 04:51:42;;;;;;;;;;;;;;;12.10;100.00;97108.16;5095264;28;20036;-74
2022/10/12 04:54:09;;;;;;;;;;;;;;;12.09;100.00;97106.53;5094920;28;20086;-74
2022/10/12 04:56:35;;;;;;;;;;;;;;;12.09;100.00;97111.78;5095169;28;20428;-74
2022/10/12 04:59:01;;;;;;;;;;;;;;;12.05;100.00;97115.88;5094807;28;19961;-74
2022/10/12 05:01:26;;;;;;;;;;;;;;;12.05;100.00;97109.81;5094623;28;19967;-75
2022/10/12 05:03:52;;;;;;;;;;;;;;;12.03;100.00;97103.94;5094680;28;20010;-75
2022/10/12 05:06:18;;;;;;;;;;;;;;;12.02;100.00;97111.03;5094702;28;20047;-74
2022/10/12 05:08:44;;;;;;;;;;;;;;;12.02;100.00;97105.78;5094553;28;19952;-74
2022/10/12 05:11:10;;;;;;;;;;;;;;;12.03;100.00;97115.28;5093484;28;20324;-74
2022/10/12 05:13:36;;;;;;;;;;;;;;;12.06;100.00;97112.22;5094730;28;19966;-74
2022/10/12 05:16:01;;;;;;;;;;;;;;;12.08;100.00;97117.28;5094652;28;20469;-74
2022/10/12 05:18:27;;;;;;;;;;;;;;;12.08;100.00;97112.84;5094359;28;20422;-74
2022/10/12 05:20:53;;;;;;;;;;;;;;;12.08;100.00;97107.56;5094968;28;20015;-74
2022/10/12 05:23:19;;;;;;;;;;;;;;;12.11;100.00;97111.59;5094384;28;20012;-74
2022/10/12 05:25:45;;;;;;;;;;;;;;;12.07;100.00;97105.16;5094190;28;20016;-75
2022/10/12 05:28:11;;;;;;;;;;;;;;;12.03;100.00;97104.75;5094593;28;19958;-74
2022/10/12 05:30:37;;;;;;;;;;;;;;;12.04;100.00;97102.94;5093614;28;20428;-74
2022/10/12 05:33:03;;;;;;;;;;;;;;;12.04;100.00;97101.13;5094092;28;19954;-75
2022/10/12 05:35:29;;;;;;;;;;;;;;;12.04;100.00;97106.38;5094288;28;20013;-74
2022/10/12 05:37:55;;;;;;;;;;;;;;;12.04;100.00;97109.00;5094129;28;19992;-74
2022/10/12 05:40:21;;;;;;;;;;;;;;;12.04;100.00;97106.38;5094201;28;19956;-74
2022/10/12 05:42:47;;;;;;;;;;;;;;;12.03;100.00;97112.63;5093987;28;20431;-75
2022/10/12 05:45:13;;;;;;;;;;;;;;;12.04;100.00;97110.84;5093932;28;19956;-74
2022/10/12 05:47:39;;;;;;;;;;;;;;;12.00;100.00;97109.66;5093394;28;20396;-74
2022/10/12 05:50:05;;;;;;;;;;;;;;;11.97;100.00;97114.31;5093555;28;19960;-74
2022/10/12 05:52:31;;;;;;;;;;;;;;;11.99;100.00;97119.38;5093822;28;20293;-74
2022/10/12 05:54:56;;;;;;;;;;;;;;;12.02;100.00;97120.75;5093837;28;20042;-74
2022/10/12 05:57:22;;;;;;;;;;;;;;;12.03;100.00;97114.47;5093970;28;19953;-74
2022/10/12 05:59:48;;;;;;;;;;;;;;;12.04;100.00;97109.00;5093741;28;19948;-74
2022/10/12 06:02:15;;;;;;;;;;;;;;;12.07;100.00;97120.91;5093634;28;20460;-75
2022/10/12 06:04:41;;;;;;;;;;;;;;;12.09;100.00;97117.06;5084523;28;19955;-74
2022/10/12 06:07:08;;;;;;;;;;;;;;;12.10;100.00;97118.69;5093148;28;20455;-74
2022/10/12 06:09:34;;;;;;;;;;;;;;;12.14;100.00;97117.25;5093752;28;19956;-74
2022/10/12 06:11:59;;;;;;;;;;;;;;;12.15;100.00;97110.97;5093506;28;19959;-75
2022/10/12 06:14:25;;;;;;;;;;;;;;;12.18;100.00;97115.00;5093729;28;19996;-74
2022/10/12 06:16:51;;;;;;;;;;;;;;;12.19;100.00;97121.88;5093462;28;20024;-75
2022/10/12 06:19:17;;;;;;;;;;;;;;;12.19;100.00;97121.88;5093193;28;19980;-74
2022/10/12 06:21:43;;;;;;;;;;;;;;;12.16;100.00;97120.47;5092228;28;20072;-74
2022/10/12 06:24:09;;;;;;;;;;;;;;;12.11;100.00;97120.28;5093609;28;19972;-74
2022/10/12 06:26:35;;;;;;;;;;;;;;;12.09;100.00;97124.94;5093416;28;20394;-75
2022/10/12 06:29:01;;;;;;;;;;;;;;;12.08;100.00;97127.81;5092381;28;20405;-74
2022/10/12 06:31:27;;;;;;;;;;;;;;;12.07;100.00;97126.97;5092160;28;19969;-74
2022/10/12 06:33:53;;;;;;;;;;;;;;;12.10;100.00;97128.41;5093301;28;20308;-74
2022/10/12 06:36:19;;;;;;;;;;;;;;;12.09;100.00;97132.84;5093405;28;19950;-74
2022/10/12 06:38:45;;;;;;;;;;;;;;;12.07;100.00;97132.22;5093605;28;20326;-74
2022/10/12 06:41:11;;;;;;;;;;;;;;;12.08;100.00;97138.31;5093247;28;19973;-74
2022/10/12 06:43:37;;;;;;;;;;;;;;;12.07;100.00;97134.88;5093500;28;19960;-74
2022/10/12 06:46:03;;;;;;;;;;;;;;;12.07;100.00;97134.06;5093482;28;20320;-74
2022/10/12 06:48:29;;;;;;;;;;;;;;;12.09;100.00;97134.66;5080589;28;19957;-74
2022/10/12 06:50:55;;;;;;;;;;;;;;;12.10;100.00;97133.66;5093649;28;19955;-74
2022/10/12 06:53:21;;;;;;;;;;;;;;;12.12;100.00;97136.88;5093396;28;20052;-74
2022/10/12 06:55:47;;;;;;;;;;;;;;;12.13;100.00;97139.28;5093246;28;19955;-74
2022/10/12 06:58:12;;;;;;;;;;;;;;;12.15;100.00;97137.25;5093078;28;19995;-74
2022/10/12 07:00:38;;;;;;;;;;;;;;;12.17;100.00;97139.69;5094459;28;19963;-74
2022/10/12 07:03:04;;;;;;;;;;;;;;;12.19;100.00;97141.06;5097015;28;20058;-75
2022/10/12 07:05:30;;;;;;;;;;;;;;;12.22;100.00;97141.66;5097289;28;19997;-76
2022/10/12 07:07:56;;;;;;;;;;;;;;;12.21;100.00;97143.50;5097008;28;19945;-74
2022/10/12 07:10:22;;;;;;;;;;;;;;;12.21;100.00;97140.06;5097163;28;19963;-74
2022/10/12 07:12:48;;;;;;;;;;;;;;;12.23;100.00;97138.03;5096799;28;19958;-74
2022/10/12 07:15:14;;;;;;;;;;;;;;;12.24;100.00;97140.47;5097519;28;19956;-75
2022/10/12 07:17:40;;;;;;;;;;;;;;;12.27;100.00;97142.66;5096514;28;20345;-74
2022/10/12 07:20:06;;;;;;;;;;;;;;;12.28;100.00;97135.56;5096972;28;19962;-74
2022/10/12 07:22:32;;;;;;;;;;;;;;;12.30;100.00;97133.53;5096795;28;19984;-74
2022/10/12 07:24:58;;;;;;;;;;;;;;;12.32;100.00;97137.56;5096876;28;20324;-75
2022/10/12 07:27:24;;;;;;;;;;;;;;;12.34;100.00;97134.72;5096469;28;19959;-75
2022/10/12 07:29:50;;;;;;;;;;;;;;;12.35;100.00;97134.53;5095902;28;20012;-75
2022/10/12 07:32:16;;;;;;;;;;;;;;;12.36;100.00;97136.13;5096532;28;19988;-74
2022/10/12 07:34:43;;;;;;;;;;;;;;;12.37;100.00;97129.84;5096690;28;20017;-75
2022/10/12 07:37:09;;;;;;;;;;;;;;;12.40;100.00;97133.88;5096807;28;19963;-75
2022/10/12 07:39:35;;;;;;;;;;;;;;;12.39;100.00;97133.09;5096782;28;19953;-75
2022/10/12 07:42:01;;;;;;;;;;;;;;;12.43;100.00;97137.91;5096415;28;20063;-74
2022/10/12 07:44:27;;;;;;;;;;;;;;;12.43;100.00;97143.16;5097171;28;20002;-74
2022/10/12 07:46:53;;;;;;;;;;;;;;;12.44;100.00;97140.34;5096508;28;20016;-75
2022/10/12 07:49:19;;;;;;;;;;;;;;;12.45;100.00;97141.13;5096689;28;19951;-74
2022/10/12 07:51:46;;;;;;;;;;;;;;;12.50;100.00;97136.06;5096495;28;19965;-74
2022/10/12 07:54:12;;;;;;;;;;;;;;;12.58;100.00;97136.59;5096182;28;19977;-74
2022/10/12 07:56:38;;;;;;;;;;;;;;;12.67;100.00;97133.72;5096351;28;19954;-74
2022/10/12 07:59:04;;;;;;;;;;;;;;;12.77;100.00;97136.66;5096357;28;19964;-74
2022/10/12 08:01:31;;;;;;;;;;;;;;;12.86;100.00;97139.84;5096477;28;19982;-74
2022/10/12 08:03:57;;;;;;;;;;;;;;;12.94;100.00;97139.56;5095974;28;19955;-74
2022/10/12 08:06:24;;;;;;;;;;;;;;;13.00;100.00;97150.03;5096170;28;19952;-74
2022/10/12 08:08:50;;;;;;;;;;;;;;;13.05;100.00;97151.22;5096094;28;19951;-74
2022/10/12 08:11:16;;;;;;;;;;;;;;;13.08;100.00;97148.16;5095534;28;19964;-74
2022/10/12 08:13:42;;;;;;;;;;;;;;;13.14;100.00;97150.72;5096271;28;19966;-74
2022/10/12 08:16:10;;;;;;;;;;;;;;;13.18;100.00;97149.25;5095803;28;19978;-74
2022/10/12 08:18:36;;;;;;;;;;;;;;;13.24;100.00;97154.69;5096074;28;20440;-74
2022/10/12 08:21:03;;;;;;;;;;;;;;;13.26;100.00;97150.81;5095117;28;19998;-74
2022/10/12 08:23:29;;;;;;;;;;;;;;;13.30;100.00;97152.03;5095691;28;19990;-74
2022/10/12 08:25:55;;;;;;;;;;;;;;;13.34;100.00;97147.94;5095636;28;20406;-75
2022/10/12 08:28:21;;;;;;;;;;;;;;;13.39;100.00;97149.91;5079477;28;19955;-75
2022/10/12 08:30:47;;;;;;;;;;;;;;;13.40;100.00;97143.63;5095786;28;19952;-74
2022/10/12 08:33:14;;;;;;;;;;;;;;;13.41;100.00;97150.50;5095503;28;19970;-74
2022/10/12 08:35:40;;;;;;;;;;;;;;;13.37;100.00;97144.84;5095552;28;19946;-74
2022/10/12 08:38:06;;;;;;;;;;;;;;;13.32;100.00;97146.53;5095136;28;19960;-74
2022/10/12 08:40:35;;;;;;;;;;;;;;;13.30;100.00;97146.75;5095597;28;20429;-74
2022/10/12 08:43:07;;;;;;;;;;;;;;;13.31;100.00;97150.19;5095235;28;20375;-74
2022/10/12 08:45:52;;;;;;;;;;;;;;;13.30;100.00;97144.13;5094652;28;19968;-74
2022/10/12 08:48:37;;;;;;;;;;;;;;;13.30;100.00;97138.84;5095380;28;19963;-75
2022/10/12 08:51:06;;;;;;;;;;;;;;;13.29;100.00;97139.91;5095318;28;19979;-74
2022/10/12 08:53:46;;;;;;;;;;;;;;;13.27;100.00;97141.06;5094673;28;19953;-74
2022/10/12 08:56:17;;;;;;;;;;;;;;;13.24;100.00;97139.69;5095540;28;19951;-74
2022/10/12 08:58:43;;;;;;;;;;;;;;;13.26;100.00;97145.53;5094972;28;19961;-74
2022/10/12 09:01:12;;;;;;;;;;;;;;;13.31;100.00;97148.38;5094908;28;19947;-75
2022/10/12 09:03:38;;;;;;;;;;;;;;;13.34;100.00;97139.22;5092758;28;19972;-78
2022/10/12 09:06:22;;;;;;;;;;;;;;;13.34;100.00;97128.69;5089530;28;19966;-74
2022/10/12 09:08:51;;;;;;;;;;;;;;;13.33;100.00;97138.44;5075012;28;20408;-74
2022/10/12 09:11:36;;;;;;;;;;;;;;;13.33;99.92;97141.06;5077248;28;19962;-75
2022/10/12 09:14:07;;;;;;;;;;;;;;;13.34;100.00;97144.50;5070447;28;19957;-75
2022/10/12 09:16:36;;;;;;;;;;;;;;;13.35;100.00;97154.00;5079723;28;19962;-75
2022/10/12 09:19:22;;;;;;;;;;;;;;;13.38;100.00;97148.31;5085817;28;19984;-75
2022/10/12 09:21:48;;;;;;;;;;;;;;;13.43;100.00;97150.28;5091390;28;19980;-75
2022/10/12 09:24:17;;;;;;;;;;;;;;;13.49;100.00;97149.41;5093938;28;19957;-74
2022/10/12 09:26:45;;;;;;;;;;;;;;;13.50;100.00;97149.19;5094346;28;19958;-75
2022/10/12 09:29:17;;;;;;;;;;;;;;;13.51;100.00;97150.81;5094543;28;19998;-75
2022/10/12 09:31:56;;;;;;;;;;;;;;;13.52;100.00;97148.97;5094441;28;19959;-75
2022/10/12 09:34:22;;;;;;;;;;;;;;;13.54;99.72;97144.28;5094309;28;19957;-74
2022/10/12 09:36:48;;;;;;;;;;;;;;;13.54;99.75;97149.56;5094377;28;19954;-75
2022/10/12 09:39:17;;;;;;;;;;;;;;;13.58;99.97;97151.53;5094313;28;20332;-74
2022/10/12 09:41:43;;;;;;;;;;;;;;;13.66;99.42;97152.28;5094309;28;19965;-75
2022/10/12 09:44:24;;;;;;;;;;;;;;;13.74;98.75;97152.78;5094272;28;19955;-75
2022/10/12 09:46:54;;;;;;;;;;;;;;;13.78;98.67;97153.94;5094102;28;19953;-75
2022/10/12 09:49:21;;;;;;;;;;;;;;;13.83;98.09;97152.47;5094621;28;19953;-74
2022/10/12 09:51:47;;;;;;;;;;;;;;;13.86;96.90;97152.03;5094047;28;19953;-75
2022/10/12 09:54:18;;;;;;;;;;;;;;;13.87;95.94;97143.09;5094254;28;19955;-74
2022/10/12 09:56:48;;;;;;;;;;;;;;;13.89;96.71;97149.75;5093937;28;20445;-74
2022/10/12 09:59:23;;;;;;;;;;;;;;;13.88;95.33;97148.16;5093953;28;19957;-75
2022/10/12 10:02:08;;;;;;;;;;;;;;;13.83;96.20;97153.28;5093864;28;19967;-74
2022/10/12 10:04:34;;;;;;;;;;;;;;;13.81;97.95;97157.97;5093998;28;19953;-75
2022/10/12 10:07:13;;;;;;;;;;;;;;;13.84;97.77;97147.00;5093871;28;19998;-75
2022/10/12 10:09:39;;;;;;;;;;;;;;;13.87;97.73;97151.81;5093759;28;19951;-75
2022/10/12 10:12:24;;;;;;;;;;;;;;;13.90;96.81;97148.75;5093828;28;20042;-74
2022/10/12 10:14:51;;;;;;;;;;;;;;;13.90;97.20;97151.38;5082241;28;20440;-74
2022/10/12 10:17:23;;;;;;;;;;;;;;;13.94;98.06;97157.84;5093513;28;19961;-75
2022/10/12 10:19:49;;;;;;;;;;;;;;;14.01;98.54;97150.63;5093887;28;19959;-75
2022/10/12 10:22:15;;;;;;;;;;;;;;;14.10;96.43;97139.78;5092898;28;19989;-74
2022/10/12 10:24:41;;;;;;;;;;;;;;;14.17;97.58;97148.41;5093605;28;19959;-74
2022/10/12 10:27:25;;;;;;;;;;;;;;;14.27;97.62;97150.50;5093576;28;20008;-74
2022/10/12 10:29:51;;;;;;;;;;;;;;;14.33;95.73;97145.13;5093227;28;19954;-75
2022/10/12 10:32:28;;;;;;;;;;;;;;;14.38;94.11;97141.81;5093964;28;19964;-75
2022/10/12 10:35:14;;;;;;;;;;;;;;;14.39;94.31;97138.16;5094965;28;19953;-74
2022/10/12 10:37:42;;;;;;;;;;;;;;;14.41;92.09;97138.75;5090185;28;19953;-74
2022/10/12 10:40:17;;;;;;;;;;;;;;;14.43;94.09;97143.81;5097776;28;19960;-75
2022/10/12 10:42:47;;;;;;;;;;;;;;;14.46;91.40;97133.59;5097703;28;19977;-75
2022/10/12 10:45:21;;;;;;;;;;;;;;;14.47;92.51;97139.66;5097810;28;19955;-75
2022/10/12 10:47:47;;;;;;;;;;;;;;;14.51;92.18;97143.47;5097686;28;20396;-74
2022/10/12 10:50:23;;;;;;;;;;;;;;;14.56;93.47;97148.91;5097432;28;20016;-74
2022/10/12 10:52:54;;;;;;;;;;;;;;;14.61;92.76;97144.56;5097619;28;19952;-75
2022/10/12 10:55:22;;;;;;;;;;;;;;;14.65;92.04;97137.00;5097348;28;19964;-75
2022/10/12 10:58:00;;;;;;;;;;;;;;;14.67;91.84;97142.06;5097212;28;19958;-75
2022/10/12 11:00:27;;;;;;;;;;;;;;;14.71;92.47;97143.22;5097255;28;20296;-74
2022/10/12 11:02:57;;;;;;;;;;;;;;;14.73;91.33;97139.31;5097301;28;19984;-74
2022/10/12 11:05:23;;;;;;;;;;;;;;;14.78;91.78;97142.09;5097231;28;19967;-74
2022/10/12 11:07:51;;;;;;;;;;;;;;;14.80;90.63;97129.47;5097334;28;19965;-74
2022/10/12 11:10:24;;;;;;;;;;;;;;;14.83;91.69;97141.41;5096609;28;20325;-74
2022/10/12 11:12:54;;;;;;;;;;;;;;;14.87;91.13;97141.75;5097222;28;19979;-74
2022/10/12 11:15:19;;;;;;;;;;;;;;;14.86;89.83;97127.72;5097029;28;20315;-74
2022/10/12 11:17:48;;;;;;;;;;;;;;;14.86;90.62;97129.56;5096860;28;19978;-74
2022/10/12 11:20:16;;;;;;;;;;;;;;;14.85;90.01;97127.97;5096242;28;19951;-74
2022/10/12 11:23:02;;;;;;;;;;;;;;;14.85;89.05;97125.34;5096936;28;20211;-74
2022/10/12 11:25:28;;;;;;;;;;;;;;;14.88;90.20;97138.06;5096964;28;19959;-76
2022/10/12 11:27:54;;;;;;;;;;;;;;;14.94;88.57;97126.59;5096908;28;20009;-74
2022/10/12 11:30:24;;;;;;;;;;;;;;;14.89;83.88;97090.31;5096987;28;19957;-75
2022/10/12 11:32:53;;;;;;;;;;;;;;;14.87;88.36;97123.28;5097060;28;19962;-74
2022/10/12 11:35:26;;;;;;;;;;;;;;;14.90;88.75;97125.44;5096651;28;19948;-74
2022/10/12 11:37:54;;;;;;;;;;;;;;;14.96;88.93;97116.59;5096105;28;19958;-74
2022/10/12 11:40:24;;;;;;;;;;;;;;;15.00;89.60;97123.84;5095823;28;19971;-74
2022/10/12 11:42:51;;;;;;;;;;;;;;;14.96;87.46;97101.56;5096548;28;20450;-74
2022/10/12 11:45:28;;;;;;;;;;;;;;;14.95;88.91;97107.06;5095393;28;19958;-74
2022/10/12 11:47:58;;;;;;;;;;;;;;;15.01;88.91;97106.97;5095957;28;19969;-74
2022/10/12 11:50:36;;;;;;;;;;;;;;;15.06;88.04;97095.72;5096486;28;19962;-74
2022/10/12 11:53:05;;;;;;;;;;;;;;;15.09;89.38;97108.44;5096339;28;19950;-74
2022/10/12 11:55:39;;;;;;;;;;;;;;;15.14;88.89;97103.28;5096560;28;19958;-74
2022/10/12 11:58:09;;;;;;;;;;;;;;;15.17;85.57;97078.25;5096154;28;19951;-75
2022/10/12 12:00:35;;;;;;;;;;;;;;;15.15;87.36;97096.94;5096285;28;19951;-75
2022/10/12 12:03:13;;;;;;;;;;;;;;;15.16;88.12;97095.09;5096487;28;20446;-74
2022/10/12 12:05:38;;;;;;;;;;;;;;;15.19;88.32;97102.59;5096622;28;20020;-74
2022/10/12 12:08:04;;;;;;;;;;;;;;;15.24;88.32;97094.75;5096101;28;19957;-74
2022/10/12 12:10:33;;;;;;;;;;;;;;;15.34;89.41;97096.81;5096148;28;19953;-75
2022/10/12 12:13:16;;;;;;;;;;;;;;;15.42;88.16;97091.97;5096072;28;19956;-74
2022/10/12 12:16:02;;;;;;;;;;;;;;;15.49;85.98;97073.34;5096150;28;19956;-74
2022/10/12 12:18:30;;;;;;;;;;;;;;;15.53;84.58;97063.13;5095869;28;19977;-74
2022/10/12 12:20:59;;;;;;;;;;;;;;;15.53;86.36;97077.13;5095736;28;19969;-75
2022/10/12 12:23:27;;;;;;;;;;;;;;;15.58;87.71;97082.53;5095612;28;19961;-74
2022/10/12 12:26:12;;;;;;;;;;;;;;;15.63;83.75;97055.41;5096212;28;19955;-74
2022/10/12 12:28:43;;;;;;;;;;;;;;;15.65;84.59;97063.88;5095902;28;20305;-74
2022/10/12 12:31:13;;;;;;;;;;;;;;;15.66;87.89;97073.41;5095861;28;19955;-74
2022/10/12 12:33:41;;;;;;;;;;;;;;;15.59;83.32;97051.63;5095197;28;19952;-75
2022/10/12 12:36:07;;;;;;;;;;;;;;;15.56;85.53;97062.63;5095020;28;19950;-74
2022/10/12 12:38:36;;;;;;;;;;;;;;;15.52;83.77;97048.31;5095679;28;19979;-75
2022/10/12 12:41:04;;;;;;;;;;;;;;;15.49;85.41;97056.69;5095818;28;20402;-74
2022/10/12 12:43:30;;;;;;;;;;;;;;;15.46;86.20;97062.47;5095201;28;19969;-75
2022/10/12 12:46:11;;;;;;;;;;;;;;;15.47;85.54;97061.41;5095368;28;19956;-75